sensor_id;sensor_type;location;lat;lon;timestamp;P1;durP1;ratioP1;P2;durP2;ratioP2
80233;SDS011;69712;42.142;24.766;2024-01-10T00:02:20;27.17;;;16.10;;
80233;SDS011;69712;42.142;24.766;2024-01-10T00:04:46;27.02;;;15.35;;
80233;SDS011;69712;42.142;24.766;2024-01-10T00:07:11;27.52;;;14.50;;
80233;SDS011;69712;42.142;24.766;2024-01-10T00:09:37;27.55;;;15.80;;
80233;SDS011;69712;42.142;24.766;2024-01-10T00:12:03;24.15;;;14.30;;
80233;SDS011;69712;42.142;24.766;2024-01-10T00:14:29;24.85;;;15.32;;
80233;SDS011;69712;42.142;24.766;2024-01-10T00:16:55;27.30;;;16.08;;
80233;SDS011;69712;42.142;24.766;2024-01-10T00:19:20;27.83;;;15.38;;
80233;SDS011;69712;42.142;24.766;2024-01-10T00:21:46;26.35;;;16.15;;
80233;SDS011;69712;42.142;24.766;2024-01-10T00:24:12;23.05;;;14.57;;
80233;SDS011;69712;42.142;24.766;2024-01-10T00:26:38;24.10;;;15.20;;
80233;SDS011;69712;42.142;24.766;2024-01-10T00:29:03;24.88;;;15.05;;
80233;SDS011;69712;42.142;24.766;2024-01-10T00:31:29;27.17;;;15.43;;
80233;SDS011;69712;42.142;24.766;2024-01-10T00:33:55;25.38;;;16.15;;
80233;SDS011;69712;42.142;24.766;2024-01-10T00:36:20;28.42;;;16.30;;
80233;SDS011;69712;42.142;24.766;2024-01-10T00:38:46;24.02;;;15.52;;
80233;SDS011;69712;42.142;24.766;2024-01-10T00:41:12;25.42;;;15.05;;
80233;SDS011;69712;42.142;24.766;2024-01-10T00:43:38;25.55;;;16.02;;
80233;SDS011;69712;42.142;24.766;2024-01-10T00:46:03;29.48;;;16.35;;
80233;SDS011;69712;42.142;24.766;2024-01-10T00:48:29;28.73;;;17.15;;
80233;SDS011;69712;42.142;24.766;2024-01-10T00:50:55;27.42;;;16.67;;
80233;SDS011;69712;42.142;24.766;2024-01-10T00:53:21;28.40;;;16.15;;
80233;SDS011;69712;42.142;24.766;2024-01-10T00:55:46;26.45;;;16.35;;
80233;SDS011;69712;42.142;24.766;2024-01-10T00:58:13;27.60;;;15.73;;
80233;SDS011;69712;42.142;24.766;2024-01-10T01:00:39;24.15;;;15.02;;
80233;SDS011;69712;42.142;24.766;2024-01-10T01:03:05;25.27;;;14.57;;
80233;SDS011;69712;42.142;24.766;2024-01-10T01:05:31;23.65;;;14.32;;
80233;SDS011;69712;42.142;24.766;2024-01-10T01:07:57;23.05;;;13.90;;
80233;SDS011;69712;42.142;24.766;2024-01-10T01:10:23;21.65;;;14.13;;
80233;SDS011;69712;42.142;24.766;2024-01-10T01:12:49;22.85;;;13.45;;
80233;SDS011;69712;42.142;24.766;2024-01-10T01:15:14;22.35;;;13.50;;
80233;SDS011;69712;42.142;24.766;2024-01-10T01:17:40;27.13;;;14.95;;
80233;SDS011;69712;42.142;24.766;2024-01-10T01:20:06;21.58;;;13.57;;
80233;SDS011;69712;42.142;24.766;2024-01-10T01:22:32;23.70;;;13.43;;
80233;SDS011;69712;42.142;24.766;2024-01-10T01:24:58;25.05;;;14.05;;
80233;SDS011;69712;42.142;24.766;2024-01-10T01:27:24;22.27;;;13.95;;
80233;SDS011;69712;42.142;24.766;2024-01-10T01:29:50;23.48;;;14.35;;
80233;SDS011;69712;42.142;24.766;2024-01-10T01:32:15;24.70;;;14.68;;
80233;SDS011;69712;42.142;24.766;2024-01-10T01:34:41;24.77;;;14.40;;
80233;SDS011;69712;42.142;24.766;2024-01-10T01:37:07;25.88;;;14.60;;
80233;SDS011;69712;42.142;24.766;2024-01-10T01:39:32;27.65;;;14.27;;
80233;SDS011;69712;42.142;24.766;2024-01-10T01:41:58;25.58;;;15.15;;
80233;SDS011;69712;42.142;24.766;2024-01-10T01:44:24;27.05;;;16.00;;
80233;SDS011;69712;42.142;24.766;2024-01-10T01:46:50;25.35;;;15.43;;
80233;SDS011;69712;42.142;24.766;2024-01-10T01:49:16;28.02;;;15.95;;
80233;SDS011;69712;42.142;24.766;2024-01-10T01:51:42;29.38;;;17.00;;
80233;SDS011;69712;42.142;24.766;2024-01-10T01:54:08;29.70;;;16.45;;
80233;SDS011;69712;42.142;24.766;2024-01-10T01:56:35;30.58;;;17.35;;
80233;SDS011;69712;42.142;24.766;2024-01-10T01:59:02;27.30;;;16.17;;
80233;SDS011;69712;42.142;24.766;2024-01-10T02:01:29;27.92;;;15.65;;
80233;SDS011;69712;42.142;24.766;2024-01-10T02:03:55;29.88;;;16.40;;
80233;SDS011;69712;42.142;24.766;2024-01-10T02:06:22;26.95;;;15.70;;
80233;SDS011;69712;42.142;24.766;2024-01-10T02:08:48;25.65;;;15.52;;
80233;SDS011;69712;42.142;24.766;2024-01-10T02:11:14;26.30;;;14.63;;
80233;SDS011;69712;42.142;24.766;2024-01-10T02:13:40;25.08;;;14.38;;
80233;SDS011;69712;42.142;24.766;2024-01-10T02:16:06;24.33;;;14.45;;
80233;SDS011;69712;42.142;24.766;2024-01-10T02:18:32;26.52;;;14.50;;
80233;SDS011;69712;42.142;24.766;2024-01-10T02:21:00;22.90;;;13.85;;
80233;SDS011;69712;42.142;24.766;2024-01-10T02:23:26;25.98;;;14.60;;
80233;SDS011;69712;42.142;24.766;2024-01-10T02:25:51;24.63;;;13.32;;
80233;SDS011;69712;42.142;24.766;2024-01-10T02:28:17;26.95;;;15.13;;
80233;SDS011;69712;42.142;24.766;2024-01-10T02:30:43;26.52;;;14.45;;
80233;SDS011;69712;42.142;24.766;2024-01-10T02:33:09;27.42;;;15.13;;
80233;SDS011;69712;42.142;24.766;2024-01-10T02:35:35;24.42;;;14.85;;
80233;SDS011;69712;42.142;24.766;2024-01-10T02:38:01;24.13;;;15.45;;
80233;SDS011;69712;42.142;24.766;2024-01-10T02:40:28;27.23;;;15.18;;
80233;SDS011;69712;42.142;24.766;2024-01-10T02:42:53;27.30;;;14.98;;
80233;SDS011;69712;42.142;24.766;2024-01-10T02:45:19;24.38;;;15.13;;
80233;SDS011;69712;42.142;24.766;2024-01-10T02:47:45;27.05;;;14.57;;
80233;SDS011;69712;42.142;24.766;2024-01-10T02:50:11;24.52;;;13.80;;
80233;SDS011;69712;42.142;24.766;2024-01-10T02:52:36;23.77;;;14.07;;
80233;SDS011;69712;42.142;24.766;2024-01-10T02:55:02;24.00;;;13.68;;
80233;SDS011;69712;42.142;24.766;2024-01-10T02:57:28;21.63;;;14.07;;
80233;SDS011;69712;42.142;24.766;2024-01-10T02:59:54;23.48;;;13.63;;
80233;SDS011;69712;42.142;24.766;2024-01-10T03:02:20;23.77;;;14.10;;
80233;SDS011;69712;42.142;24.766;2024-01-10T03:04:48;23.13;;;14.60;;
80233;SDS011;69712;42.142;24.766;2024-01-10T03:07:13;23.88;;;14.40;;
80233;SDS011;69712;42.142;24.766;2024-01-10T03:09:39;21.77;;;12.85;;
80233;SDS011;69712;42.142;24.766;2024-01-10T03:12:05;21.63;;;13.57;;
80233;SDS011;69712;42.142;24.766;2024-01-10T03:14:32;24.58;;;14.57;;
80233;SDS011;69712;42.142;24.766;2024-01-10T03:16:58;23.48;;;13.38;;
80233;SDS011;69712;42.142;24.766;2024-01-10T03:19:24;23.08;;;13.68;;
80233;SDS011;69712;42.142;24.766;2024-01-10T03:21:50;23.85;;;14.00;;
80233;SDS011;69712;42.142;24.766;2024-01-10T03:24:16;23.65;;;14.30;;
80233;SDS011;69712;42.142;24.766;2024-01-10T03:26:42;24.02;;;14.65;;
80233;SDS011;69712;42.142;24.766;2024-01-10T03:29:08;21.33;;;12.93;;
80233;SDS011;69712;42.142;24.766;2024-01-10T03:31:34;23.83;;;13.82;;
80233;SDS011;69712;42.142;24.766;2024-01-10T03:33:59;22.98;;;13.63;;
80233;SDS011;69712;42.142;24.766;2024-01-10T03:36:25;23.23;;;14.43;;
80233;SDS011;69712;42.142;24.766;2024-01-10T03:38:52;24.30;;;14.10;;
80233;SDS011;69712;42.142;24.766;2024-01-10T03:41:18;29.70;;;14.10;;
80233;SDS011;69712;42.142;24.766;2024-01-10T03:43:45;26.30;;;14.88;;
80233;SDS011;69712;42.142;24.766;2024-01-10T03:46:11;24.33;;;14.35;;
80233;SDS011;69712;42.142;24.766;2024-01-10T03:48:38;24.23;;;14.75;;
80233;SDS011;69712;42.142;24.766;2024-01-10T03:51:12;24.70;;;14.20;;
80233;SDS011;69712;42.142;24.766;2024-01-10T03:53:38;30.13;;;14.55;;
80233;SDS011;69712;42.142;24.766;2024-01-10T03:56:04;23.55;;;14.00;;
80233;SDS011;69712;42.142;24.766;2024-01-10T03:58:30;24.17;;;13.95;;
80233;SDS011;69712;42.142;24.766;2024-01-10T04:00:56;24.42;;;13.90;;
80233;SDS011;69712;42.142;24.766;2024-01-10T04:03:22;23.50;;;14.02;;
80233;SDS011;69712;42.142;24.766;2024-01-10T04:05:47;25.50;;;13.63;;
80233;SDS011;69712;42.142;24.766;2024-01-10T04:08:13;21.85;;;13.88;;
80233;SDS011;69712;42.142;24.766;2024-01-10T04:10:39;23.40;;;13.63;;
80233;SDS011;69712;42.142;24.766;2024-01-10T04:13:05;22.90;;;13.32;;
80233;SDS011;69712;42.142;24.766;2024-01-10T04:15:30;23.73;;;13.82;;
80233;SDS011;69712;42.142;24.766;2024-01-10T04:17:56;23.45;;;14.18;;
80233;SDS011;69712;42.142;24.766;2024-01-10T04:20:22;26.40;;;14.43;;
80233;SDS011;69712;42.142;24.766;2024-01-10T04:22:47;26.23;;;14.13;;
80233;SDS011;69712;42.142;24.766;2024-01-10T04:25:13;23.52;;;13.57;;
80233;SDS011;69712;42.142;24.766;2024-01-10T04:27:39;23.27;;;13.38;;
80233;SDS011;69712;42.142;24.766;2024-01-10T04:30:05;24.85;;;13.98;;
80233;SDS011;69712;42.142;24.766;2024-01-10T04:32:31;27.27;;;15.05;;
80233;SDS011;69712;42.142;24.766;2024-01-10T04:34:57;23.02;;;13.88;;
80233;SDS011;69712;42.142;24.766;2024-01-10T04:37:23;23.60;;;12.93;;
80233;SDS011;69712;42.142;24.766;2024-01-10T04:39:48;26.77;;;13.65;;
80233;SDS011;69712;42.142;24.766;2024-01-10T04:42:14;25.15;;;13.32;;
80233;SDS011;69712;42.142;24.766;2024-01-10T04:44:40;22.33;;;13.10;;
80233;SDS011;69712;42.142;24.766;2024-01-10T04:47:07;23.30;;;13.23;;
80233;SDS011;69712;42.142;24.766;2024-01-10T04:49:33;24.77;;;14.27;;
80233;SDS011;69712;42.142;24.766;2024-01-10T04:51:58;24.95;;;14.48;;
80233;SDS011;69712;42.142;24.766;2024-01-10T04:54:24;25.40;;;15.18;;
80233;SDS011;69712;42.142;24.766;2024-01-10T04:56:50;26.80;;;14.65;;
80233;SDS011;69712;42.142;24.766;2024-01-10T04:59:16;24.75;;;14.27;;
80233;SDS011;69712;42.142;24.766;2024-01-10T05:01:41;27.55;;;14.52;;
80233;SDS011;69712;42.142;24.766;2024-01-10T05:04:07;29.73;;;15.32;;
80233;SDS011;69712;42.142;24.766;2024-01-10T05:06:33;25.75;;;15.82;;
80233;SDS011;69712;42.142;24.766;2024-01-10T05:08:58;28.02;;;16.30;;
80233;SDS011;69712;42.142;24.766;2024-01-10T05:11:24;26.02;;;15.13;;
80233;SDS011;69712;42.142;24.766;2024-01-10T05:13:51;29.27;;;16.25;;
80233;SDS011;69712;42.142;24.766;2024-01-10T05:16:17;27.55;;;15.68;;
80233;SDS011;69712;42.142;24.766;2024-01-10T05:18:43;26.38;;;15.30;;
80233;SDS011;69712;42.142;24.766;2024-01-10T05:21:09;26.23;;;14.35;;
80233;SDS011;69712;42.142;24.766;2024-01-10T05:23:35;25.13;;;14.73;;
80233;SDS011;69712;42.142;24.766;2024-01-10T05:26:03;30.13;;;15.23;;
80233;SDS011;69712;42.142;24.766;2024-01-10T05:28:29;28.65;;;16.23;;
80233;SDS011;69712;42.142;24.766;2024-01-10T05:30:55;28.83;;;16.48;;
80233;SDS011;69712;42.142;24.766;2024-01-10T05:33:21;28.98;;;16.58;;
80233;SDS011;69712;42.142;24.766;2024-01-10T05:35:47;30.00;;;17.27;;
80233;SDS011;69712;42.142;24.766;2024-01-10T05:38:13;30.77;;;17.30;;
80233;SDS011;69712;42.142;24.766;2024-01-10T05:40:39;33.00;;;17.88;;
80233;SDS011;69712;42.142;24.766;2024-01-10T05:43:05;30.00;;;17.23;;
80233;SDS011;69712;42.142;24.766;2024-01-10T05:45:32;28.67;;;16.95;;
80233;SDS011;69712;42.142;24.766;2024-01-10T05:47:58;29.42;;;17.40;;
80233;SDS011;69712;42.142;24.766;2024-01-10T05:50:24;32.22;;;16.67;;
80233;SDS011;69712;42.142;24.766;2024-01-10T05:52:50;29.90;;;17.02;;
80233;SDS011;69712;42.142;24.766;2024-01-10T05:55:15;31.10;;;17.17;;
80233;SDS011;69712;42.142;24.766;2024-01-10T05:57:41;29.17;;;16.77;;
80233;SDS011;69712;42.142;24.766;2024-01-10T06:00:07;30.73;;;16.73;;
80233;SDS011;69712;42.142;24.766;2024-01-10T06:02:37;28.70;;;16.20;;
80233;SDS011;69712;42.142;24.766;2024-01-10T06:05:07;30.52;;;17.42;;
80233;SDS011;69712;42.142;24.766;2024-01-10T06:07:36;31.50;;;17.15;;
80233;SDS011;69712;42.142;24.766;2024-01-10T06:10:03;34.03;;;17.25;;
80233;SDS011;69712;42.142;24.766;2024-01-10T06:12:30;28.77;;;16.85;;
80233;SDS011;69712;42.142;24.766;2024-01-10T06:14:57;30.30;;;17.52;;
80233;SDS011;69712;42.142;24.766;2024-01-10T06:17:23;32.65;;;16.23;;
80233;SDS011;69712;42.142;24.766;2024-01-10T06:19:49;29.90;;;16.27;;
80233;SDS011;69712;42.142;24.766;2024-01-10T06:22:16;28.80;;;16.45;;
80233;SDS011;69712;42.142;24.766;2024-01-10T06:24:42;30.45;;;16.58;;
80233;SDS011;69712;42.142;24.766;2024-01-10T06:27:08;28.67;;;15.00;;
80233;SDS011;69712;42.142;24.766;2024-01-10T06:29:35;30.52;;;16.80;;
80233;SDS011;69712;42.142;24.766;2024-01-10T06:32:02;29.67;;;16.92;;
80233;SDS011;69712;42.142;24.766;2024-01-10T06:34:31;31.60;;;16.58;;
80233;SDS011;69712;42.142;24.766;2024-01-10T06:36:57;32.30;;;17.92;;
80233;SDS011;69712;42.142;24.766;2024-01-10T06:39:24;36.63;;;19.52;;
80233;SDS011;69712;42.142;24.766;2024-01-10T06:41:50;40.00;;;19.42;;
80233;SDS011;69712;42.142;24.766;2024-01-10T06:44:16;36.65;;;19.63;;
80233;SDS011;69712;42.142;24.766;2024-01-10T06:46:44;34.47;;;19.20;;
80233;SDS011;69712;42.142;24.766;2024-01-10T06:49:10;38.15;;;19.83;;
80233;SDS011;69712;42.142;24.766;2024-01-10T06:51:36;37.80;;;20.35;;
80233;SDS011;69712;42.142;24.766;2024-01-10T06:54:02;42.13;;;21.20;;
80233;SDS011;69712;42.142;24.766;2024-01-10T06:56:29;37.28;;;19.50;;
80233;SDS011;69712;42.142;24.766;2024-01-10T06:59:06;37.25;;;21.08;;
80233;SDS011;69712;42.142;24.766;2024-01-10T07:01:52;35.42;;;20.15;;
80233;SDS011;69712;42.142;24.766;2024-01-10T07:04:18;40.30;;;20.40;;
80233;SDS011;69712;42.142;24.766;2024-01-10T07:10:00;39.40;;;20.88;;
80233;SDS011;69712;42.142;24.766;2024-01-10T07:12:33;35.20;;;19.52;;
80233;SDS011;69712;42.142;24.766;2024-01-10T07:15:21;37.67;;;20.35;;
80233;SDS011;69712;42.142;24.766;2024-01-10T07:17:48;37.22;;;19.50;;
80233;SDS011;69712;42.142;24.766;2024-01-10T07:20:14;39.80;;;21.70;;
80233;SDS011;69712;42.142;24.766;2024-01-10T07:22:40;35.40;;;20.40;;
80233;SDS011;69712;42.142;24.766;2024-01-10T07:25:11;35.08;;;20.10;;
80233;SDS011;69712;42.142;24.766;2024-01-10T07:27:41;37.20;;;18.92;;
80233;SDS011;69712;42.142;24.766;2024-01-10T07:30:08;36.70;;;19.10;;
80233;SDS011;69712;42.142;24.766;2024-01-10T07:32:41;34.17;;;18.73;;
80233;SDS011;69712;42.142;24.766;2024-01-10T07:35:08;35.22;;;19.17;;
80233;SDS011;69712;42.142;24.766;2024-01-10T07:37:36;33.90;;;19.20;;
80233;SDS011;69712;42.142;24.766;2024-01-10T07:40:08;34.40;;;20.30;;
80233;SDS011;69712;42.142;24.766;2024-01-10T07:42:38;34.65;;;19.58;;
80233;SDS011;69712;42.142;24.766;2024-01-10T07:45:04;29.63;;;18.60;;
80233;SDS011;69712;42.142;24.766;2024-01-10T07:47:31;34.88;;;19.60;;
80233;SDS011;69712;42.142;24.766;2024-01-10T07:49:59;33.63;;;18.98;;
80233;SDS011;69712;42.142;24.766;2024-01-10T07:52:25;35.53;;;19.08;;
80233;SDS011;69712;42.142;24.766;2024-01-10T07:54:51;33.60;;;16.98;;
80233;SDS011;69712;42.142;24.766;2024-01-10T07:57:17;31.77;;;18.10;;
80233;SDS011;69712;42.142;24.766;2024-01-10T07:59:43;33.58;;;18.35;;
80233;SDS011;69712;42.142;24.766;2024-01-10T08:02:10;30.98;;;18.15;;
80233;SDS011;69712;42.142;24.766;2024-01-10T08:04:37;33.28;;;18.88;;
80233;SDS011;69712;42.142;24.766;2024-01-10T08:07:02;38.80;;;23.17;;
80233;SDS011;69712;42.142;24.766;2024-01-10T08:09:28;39.80;;;23.60;;
80233;SDS011;69712;42.142;24.766;2024-01-10T08:11:55;61.28;;;32.38;;
80233;SDS011;69712;42.142;24.766;2024-01-10T08:14:28;54.42;;;31.55;;
80233;SDS011;69712;42.142;24.766;2024-01-10T08:16:54;55.67;;;31.98;;
80233;SDS011;69712;42.142;24.766;2024-01-10T08:19:23;51.05;;;26.25;;
80233;SDS011;69712;42.142;24.766;2024-01-10T08:21:51;47.03;;;25.60;;
80233;SDS011;69712;42.142;24.766;2024-01-10T08:27:02;40.53;;;22.38;;
80233;SDS011;69712;42.142;24.766;2024-01-10T08:29:28;44.33;;;22.45;;
80233;SDS011;69712;42.142;24.766;2024-01-10T08:31:56;52.67;;;24.92;;
80233;SDS011;69712;42.142;24.766;2024-01-10T08:34:23;35.33;;;20.58;;
80233;SDS011;69712;42.142;24.766;2024-01-10T08:36:49;36.45;;;20.98;;
80233;SDS011;69712;42.142;24.766;2024-01-10T08:39:16;37.47;;;22.02;;
80233;SDS011;69712;42.142;24.766;2024-01-10T08:41:42;40.90;;;21.05;;
80233;SDS011;69712;42.142;24.766;2024-01-10T08:44:12;34.13;;;18.13;;
80233;SDS011;69712;42.142;24.766;2024-01-10T08:46:38;36.50;;;20.55;;
80233;SDS011;69712;42.142;24.766;2024-01-10T08:49:04;34.15;;;20.77;;
80233;SDS011;69712;42.142;24.766;2024-01-10T08:51:30;38.70;;;21.85;;
80233;SDS011;69712;42.142;24.766;2024-01-10T08:53:56;35.17;;;21.95;;
80233;SDS011;69712;42.142;24.766;2024-01-10T08:56:22;35.33;;;21.35;;
80233;SDS011;69712;42.142;24.766;2024-01-10T08:58:49;36.00;;;21.70;;
80233;SDS011;69712;42.142;24.766;2024-01-10T09:01:15;34.30;;;19.83;;
80233;SDS011;69712;42.142;24.766;2024-01-10T09:03:40;30.63;;;19.13;;
80233;SDS011;69712;42.142;24.766;2024-01-10T09:06:06;35.40;;;19.05;;
80233;SDS011;69712;42.142;24.766;2024-01-10T09:08:35;32.85;;;19.80;;
80233;SDS011;69712;42.142;24.766;2024-01-10T09:11:02;32.75;;;20.17;;
80233;SDS011;69712;42.142;24.766;2024-01-10T09:13:28;33.33;;;19.73;;
80233;SDS011;69712;42.142;24.766;2024-01-10T09:15:54;35.15;;;20.63;;
80233;SDS011;69712;42.142;24.766;2024-01-10T09:18:20;31.80;;;20.02;;
80233;SDS011;69712;42.142;24.766;2024-01-10T09:20:46;36.70;;;20.05;;
80233;SDS011;69712;42.142;24.766;2024-01-10T09:23:13;32.65;;;18.77;;
80233;SDS011;69712;42.142;24.766;2024-01-10T09:25:39;34.30;;;18.90;;
80233;SDS011;69712;42.142;24.766;2024-01-10T09:28:05;32.33;;;19.42;;
80233;SDS011;69712;42.142;24.766;2024-01-10T09:30:31;33.55;;;19.58;;
80233;SDS011;69712;42.142;24.766;2024-01-10T09:32:57;31.83;;;18.35;;
80233;SDS011;69712;42.142;24.766;2024-01-10T09:35:24;34.28;;;19.13;;
80233;SDS011;69712;42.142;24.766;2024-01-10T09:37:50;37.13;;;21.48;;
80233;SDS011;69712;42.142;24.766;2024-01-10T09:40:16;34.60;;;21.30;;
80233;SDS011;69712;42.142;24.766;2024-01-10T09:42:44;35.85;;;21.38;;
80233;SDS011;69712;42.142;24.766;2024-01-10T09:45:12;37.13;;;22.67;;
80233;SDS011;69712;42.142;24.766;2024-01-10T09:47:40;27.42;;;16.88;;
80233;SDS011;69712;42.142;24.766;2024-01-10T09:50:08;23.98;;;15.68;;
80233;SDS011;69712;42.142;24.766;2024-01-10T09:52:41;27.27;;;16.48;;
80233;SDS011;69712;42.142;24.766;2024-01-10T09:55:22;27.35;;;16.42;;
80233;SDS011;69712;42.142;24.766;2024-01-10T09:57:48;30.17;;;18.02;;
80233;SDS011;69712;42.142;24.766;2024-01-10T10:00:15;26.45;;;16.08;;
80233;SDS011;69712;42.142;24.766;2024-01-10T10:02:41;24.70;;;15.55;;
80233;SDS011;69712;42.142;24.766;2024-01-10T10:05:09;24.20;;;15.38;;
80233;SDS011;69712;42.142;24.766;2024-01-10T10:07:49;25.35;;;15.60;;
80233;SDS011;69712;42.142;24.766;2024-01-10T10:10:17;23.02;;;14.75;;
80233;SDS011;69712;42.142;24.766;2024-01-10T10:12:43;24.42;;;14.63;;
80233;SDS011;69712;42.142;24.766;2024-01-10T10:15:11;21.38;;;14.50;;
80233;SDS011;69712;42.142;24.766;2024-01-10T10:17:39;23.10;;;14.55;;
80233;SDS011;69712;42.142;24.766;2024-01-10T10:20:11;22.63;;;14.13;;
80233;SDS011;69712;42.142;24.766;2024-01-10T10:22:39;18.67;;;12.43;;
80233;SDS011;69712;42.142;24.766;2024-01-10T10:25:05;18.90;;;11.90;;
80233;SDS011;69712;42.142;24.766;2024-01-10T10:27:31;17.77;;;10.40;;
80233;SDS011;69712;42.142;24.766;2024-01-10T10:29:57;17.13;;;10.75;;
80233;SDS011;69712;42.142;24.766;2024-01-10T10:32:23;23.25;;;13.02;;
80233;SDS011;69712;42.142;24.766;2024-01-10T10:34:48;29.48;;;20.83;;
80233;SDS011;69712;42.142;24.766;2024-01-10T10:37:14;22.98;;;14.80;;
80233;SDS011;69712;42.142;24.766;2024-01-10T10:39:40;17.25;;;11.57;;
80233;SDS011;69712;42.142;24.766;2024-01-10T10:42:06;20.77;;;12.40;;
80233;SDS011;69712;42.142;24.766;2024-01-10T10:44:32;19.85;;;11.13;;
80233;SDS011;69712;42.142;24.766;2024-01-10T10:47:04;16.95;;;10.65;;
80233;SDS011;69712;42.142;24.766;2024-01-10T10:49:34;15.93;;;10.60;;
80233;SDS011;69712;42.142;24.766;2024-01-10T10:52:01;18.83;;;9.85;;
80233;SDS011;69712;42.142;24.766;2024-01-10T10:54:28;13.35;;;8.38;;
80233;SDS011;69712;42.142;24.766;2024-01-10T10:56:57;12.38;;;8.82;;
80233;SDS011;69712;42.142;24.766;2024-01-10T10:59:25;13.48;;;8.55;;
80233;SDS011;69712;42.142;24.766;2024-01-10T11:01:53;11.77;;;8.57;;
80233;SDS011;69712;42.142;24.766;2024-01-10T11:04:20;14.35;;;9.52;;
80233;SDS011;69712;42.142;24.766;2024-01-10T11:06:46;23.35;;;12.98;;
80233;SDS011;69712;42.142;24.766;2024-01-10T11:09:12;19.70;;;11.57;;
80233;SDS011;69712;42.142;24.766;2024-01-10T11:17:14;12.35;;;8.38;;
80233;SDS011;69712;42.142;24.766;2024-01-10T11:25:35;11.07;;;7.30;;
80233;SDS011;69712;42.142;24.766;2024-01-10T11:28:02;11.50;;;7.38;;
80233;SDS011;69712;42.142;24.766;2024-01-10T11:30:32;12.20;;;7.95;;
80233;SDS011;69712;42.142;24.766;2024-01-10T11:33:00;12.15;;;8.50;;
80233;SDS011;69712;42.142;24.766;2024-01-10T11:35:27;13.77;;;9.20;;
80233;SDS011;69712;42.142;24.766;2024-01-10T11:37:59;14.38;;;8.50;;
80233;SDS011;69712;42.142;24.766;2024-01-10T11:40:45;12.52;;;8.00;;
80233;SDS011;69712;42.142;24.766;2024-01-10T11:43:12;12.18;;;8.57;;
80233;SDS011;69712;42.142;24.766;2024-01-10T11:45:49;16.88;;;9.52;;
80233;SDS011;69712;42.142;24.766;2024-01-10T11:48:17;15.52;;;10.15;;
80233;SDS011;69712;42.142;24.766;2024-01-10T11:50:52;15.75;;;9.88;;
80233;SDS011;69712;42.142;24.766;2024-01-10T11:53:38;13.02;;;8.88;;
80233;SDS011;69712;42.142;24.766;2024-01-10T11:56:11;13.10;;;8.50;;
80233;SDS011;69712;42.142;24.766;2024-01-10T12:01:33;13.32;;;8.90;;
80233;SDS011;69712;42.142;24.766;2024-01-10T12:03:59;11.45;;;8.32;;
80233;SDS011;69712;42.142;24.766;2024-01-10T12:06:25;13.85;;;7.88;;
80233;SDS011;69712;42.142;24.766;2024-01-10T12:08:51;13.52;;;9.20;;
80233;SDS011;69712;42.142;24.766;2024-01-10T12:11:17;19.95;;;10.20;;
80233;SDS011;69712;42.142;24.766;2024-01-10T12:13:43;14.40;;;9.90;;
80233;SDS011;69712;42.142;24.766;2024-01-10T12:16:12;16.23;;;10.13;;
80233;SDS011;69712;42.142;24.766;2024-01-10T12:18:39;15.88;;;10.52;;
80233;SDS011;69712;42.142;24.766;2024-01-10T12:21:05;18.25;;;10.20;;
80233;SDS011;69712;42.142;24.766;2024-01-10T12:23:33;16.13;;;9.75;;
80233;SDS011;69712;42.142;24.766;2024-01-10T12:26:04;18.73;;;10.77;;
80233;SDS011;69712;42.142;24.766;2024-01-10T12:28:38;18.13;;;10.77;;
80233;SDS011;69712;42.142;24.766;2024-01-10T12:31:05;18.05;;;11.13;;
80233;SDS011;69712;42.142;24.766;2024-01-10T12:33:36;18.30;;;12.35;;
80233;SDS011;69712;42.142;24.766;2024-01-10T12:38:32;18.17;;;10.23;;
80233;SDS011;69712;42.142;24.766;2024-01-10T12:40:59;20.10;;;11.80;;
80233;SDS011;69712;42.142;24.766;2024-01-10T12:43:25;17.95;;;11.07;;
80233;SDS011;69712;42.142;24.766;2024-01-10T12:46:12;17.08;;;11.73;;
80233;SDS011;69712;42.142;24.766;2024-01-10T12:48:39;20.17;;;12.07;;
80233;SDS011;69712;42.142;24.766;2024-01-10T12:51:08;18.25;;;10.73;;
80233;SDS011;69712;42.142;24.766;2024-01-10T12:53:39;21.45;;;12.23;;
80233;SDS011;69712;42.142;24.766;2024-01-10T12:56:09;20.15;;;12.25;;
80233;SDS011;69712;42.142;24.766;2024-01-10T12:58:39;20.92;;;11.73;;
80233;SDS011;69712;42.142;24.766;2024-01-10T13:01:09;17.92;;;10.70;;
80233;SDS011;69712;42.142;24.766;2024-01-10T13:03:35;19.02;;;11.10;;
80233;SDS011;69712;42.142;24.766;2024-01-10T13:06:02;18.17;;;10.95;;
80233;SDS011;69712;42.142;24.766;2024-01-10T13:08:28;21.25;;;11.35;;
80233;SDS011;69712;42.142;24.766;2024-01-10T13:10:54;16.80;;;10.65;;
80233;SDS011;69712;42.142;24.766;2024-01-10T13:13:20;19.48;;;12.45;;
80233;SDS011;69712;42.142;24.766;2024-01-10T13:15:49;19.88;;;11.85;;
80233;SDS011;69712;42.142;24.766;2024-01-10T13:18:16;26.23;;;15.02;;
80233;SDS011;69712;42.142;24.766;2024-01-10T13:20:42;25.95;;;15.52;;
80233;SDS011;69712;42.142;24.766;2024-01-10T13:23:08;31.38;;;16.73;;
80233;SDS011;69712;42.142;24.766;2024-01-10T13:25:35;28.75;;;17.30;;
80233;SDS011;69712;42.142;24.766;2024-01-10T13:28:04;29.92;;;17.83;;
80233;SDS011;69712;42.142;24.766;2024-01-10T13:30:31;27.23;;;16.20;;
80233;SDS011;69712;42.142;24.766;2024-01-10T13:32:57;27.67;;;16.05;;
80233;SDS011;69712;42.142;24.766;2024-01-10T13:35:23;29.75;;;16.65;;
80233;SDS011;69712;42.142;24.766;2024-01-10T13:37:51;25.40;;;15.43;;
80233;SDS011;69712;42.142;24.766;2024-01-10T13:40:17;30.10;;;16.98;;
80233;SDS011;69712;42.142;24.766;2024-01-10T13:42:45;33.20;;;17.55;;
80233;SDS011;69712;42.142;24.766;2024-01-10T13:45:11;32.40;;;18.38;;
80233;SDS011;69712;42.142;24.766;2024-01-10T13:47:37;37.63;;;20.13;;
80233;SDS011;69712;42.142;24.766;2024-01-10T13:50:06;32.83;;;20.27;;
80233;SDS011;69712;42.142;24.766;2024-01-10T13:52:33;36.03;;;19.58;;
80233;SDS011;69712;42.142;24.766;2024-01-10T13:55:00;33.13;;;20.50;;
80233;SDS011;69712;42.142;24.766;2024-01-10T13:57:26;39.00;;;21.90;;
80233;SDS011;69712;42.142;24.766;2024-01-10T13:59:52;35.53;;;20.67;;
80233;SDS011;69712;42.142;24.766;2024-01-10T14:02:21;39.65;;;21.02;;
80233;SDS011;69712;42.142;24.766;2024-01-10T14:04:47;34.38;;;21.67;;
80233;SDS011;69712;42.142;24.766;2024-01-10T14:07:13;35.92;;;21.52;;
80233;SDS011;69712;42.142;24.766;2024-01-10T14:09:39;39.47;;;21.10;;
80233;SDS011;69712;42.142;24.766;2024-01-10T14:12:05;39.92;;;21.30;;
80233;SDS011;69712;42.142;24.766;2024-01-10T14:14:31;29.88;;;17.27;;
80233;SDS011;69712;42.142;24.766;2024-01-10T14:16:59;32.22;;;18.17;;
80233;SDS011;69712;42.142;24.766;2024-01-10T14:19:26;31.83;;;19.55;;
80233;SDS011;69712;42.142;24.766;2024-01-10T14:21:52;31.48;;;19.25;;
80233;SDS011;69712;42.142;24.766;2024-01-10T14:24:18;35.08;;;21.00;;
80233;SDS011;69712;42.142;24.766;2024-01-10T14:26:44;32.45;;;19.95;;
80233;SDS011;69712;42.142;24.766;2024-01-10T14:29:10;28.40;;;16.88;;
80233;SDS011;69712;42.142;24.766;2024-01-10T14:31:36;30.67;;;18.08;;